Portada
METAR-TAF:

METAR-TAF

Aeropuertos :

Rundu, Namibia

latitud: 17-57-20S, longitud: 019-43-25E, altitud: 1106 m

Observación

El informe se hizo hace 21 minutos, a las 11:00 UTC
Viento 12 kt del este
Temperatura 29°C
Humedad 11%
Presión 1025 hPa
Visibilidad 10 km o más
sin nubes por debajo de 1500 m y sin presencia de cumulonimbus.

METAR: FYRU 191100Z 10012KT CAVOK 29/M05 Q1025

Hora: 13:21 (11:21 UTC)

Pronóstico

El informe se hizo hace 3 horas y 21 minutos, a las 08:00 UTC
Pronóstico válido del 19 a las 09 UTC al 19 a las 18 UTC
Viento 8 kt del este-sureste
Visibilidad 10 km o más
sin nubes por debajo de 1500 m y sin presencia de cumulonimbus.

TAF: FYRU 190800Z 1909/1918 11008KT CAVOK

Observaciones y pronósticos meteorológicos de más de 4000 aeropuertos (mensajes METAR y TAF).

Los puntos amarillos y rojos representan las estaciones disponibles.

Ponga el ratón en el punto deseado para ver el nombre de la estación.

Haga clic para ver las observaciones y los pronósticos meteorológicos.

Para cambiar el mapa : haga clic en los botones verdes con una cruz de color negro para hacer un zoom, en el botón verde con un guión para alejar o en las flechas verdes para mapas adyacentes.


METAR-TAF: